createdAt,value
2024-03-05T00:00:16.788Z,30.419000
2024-03-05T00:05:16.571Z,30.417000
2024-03-05T00:10:16.606Z,30.416000
2024-03-05T00:15:16.870Z,30.415000
2024-03-05T00:20:16.810Z,30.413000
2024-03-05T00:25:16.779Z,30.411000
2024-03-05T00:30:16.640Z,30.409000
2024-03-05T00:35:16.718Z,30.410000
2024-03-05T00:40:16.710Z,30.411000
2024-03-05T00:45:16.636Z,30.412000
2024-03-05T00:50:16.699Z,30.412000
2024-03-05T00:55:16.725Z,30.412000
2024-03-05T01:00:16.699Z,30.410000
2024-03-05T01:05:16.939Z,30.408000
2024-03-05T01:10:16.772Z,30.407000
2024-03-05T01:15:16.775Z,30.405000
2024-03-05T01:20:17.400Z,30.403000
2024-03-05T01:25:16.761Z,30.400000
2024-03-05T01:30:16.745Z,30.400000
2024-03-05T01:35:16.759Z,30.400000
2024-03-05T01:40:16.791Z,30.399000
2024-03-05T01:45:16.953Z,30.399000
2024-03-05T01:50:16.767Z,30.396000
2024-03-05T01:55:16.824Z,30.394000
2024-03-05T02:00:17.110Z,30.397000
2024-03-05T02:05:18.905Z,30.396000
2024-03-05T02:10:16.861Z,30.394000
2024-03-05T02:15:16.993Z,30.396000
2024-03-05T02:20:16.912Z,30.397000
2024-03-05T02:25:19.056Z,30.396000
2024-03-05T02:30:16.955Z,30.396000
2024-03-05T02:35:16.847Z,30.394000
2024-03-05T02:40:16.977Z,30.392000
2024-03-05T02:45:17.110Z,30.394000
2024-03-05T02:50:16.847Z,30.396000
2024-03-05T02:55:16.983Z,30.398000
2024-03-05T03:00:16.916Z,30.400000
2024-03-05T03:05:17.065Z,30.396000
2024-03-05T03:10:17.020Z,30.396000
2024-03-05T03:15:16.908Z,30.392000
2024-03-05T03:20:17.213Z,30.389000
2024-03-05T03:25:17.070Z,30.386000
2024-03-05T03:30:16.960Z,30.384000
2024-03-05T03:35:16.981Z,30.384000
2024-03-05T03:40:17.187Z,30.384000
2024-03-05T03:45:17.194Z,30.383000
2024-03-05T03:50:17.092Z,30.384000
2024-03-05T03:55:17.278Z,30.380000
2024-03-05T04:00:16.999Z,30.378000
2024-03-05T04:05:17.473Z,30.376000
2024-03-05T04:10:17.198Z,30.376000
2024-03-05T04:15:17.051Z,30.376000
2024-03-05T04:20:17.180Z,30.376000
2024-03-05T04:25:17.177Z,30.376000
2024-03-05T04:30:17.289Z,30.373000
2024-03-05T04:35:17.254Z,30.371000
2024-03-05T04:40:17.155Z,30.372000
2024-03-05T04:45:17.240Z,30.372000
2024-03-05T04:50:17.237Z,30.372000
2024-03-05T04:55:17.253Z,30.370000
2024-03-05T05:00:16.810Z,30.369000
2024-03-05T05:05:16.875Z,30.368000
2024-03-05T05:10:16.876Z,30.366000
2024-03-05T05:15:16.664Z,30.362000
2024-03-05T05:20:17.155Z,30.362000
2024-03-05T05:25:16.878Z,30.361000
2024-03-05T05:30:16.974Z,30.365000
2024-03-05T05:35:16.816Z,30.365000
2024-03-05T05:40:19.729Z,30.363000
2024-03-05T05:45:16.846Z,30.364000
2024-03-05T05:50:16.713Z,30.367000
2024-03-05T05:55:16.968Z,30.367000
2024-03-05T06:00:16.697Z,30.368000
2024-03-05T06:05:16.808Z,30.365000
2024-03-05T06:10:16.715Z,30.362000
2024-03-05T06:15:16.919Z,30.362000
2024-03-05T06:20:16.979Z,30.360000
2024-03-05T06:25:16.775Z,30.358000
2024-03-05T06:30:16.824Z,30.354000
2024-03-05T06:35:16.793Z,30.346000
2024-03-05T06:40:16.917Z,30.343000
2024-03-05T06:45:16.762Z,30.345000
2024-03-05T06:50:16.795Z,30.342000
2024-03-05T06:55:17.100Z,30.342000
2024-03-05T07:00:19.109Z,30.338000
2024-03-05T07:05:16.818Z,30.340000
2024-03-05T07:10:16.895Z,30.341000
2024-03-05T07:15:16.836Z,30.341000
2024-03-05T07:20:18.903Z,30.339000
2024-03-05T07:25:17.077Z,30.337000
2024-03-05T07:30:17.182Z,30.333000
2024-03-05T07:35:17.037Z,30.330000
2024-03-05T07:40:20.774Z,30.325000
2024-03-05T07:45:16.961Z,30.321000
2024-03-05T07:50:16.947Z,30.321000
2024-03-05T07:55:17.233Z,30.322000
2024-03-05T08:00:16.908Z,30.326000
2024-03-05T08:05:17.094Z,30.323000
2024-03-05T08:10:17.117Z,30.321000
2024-03-05T08:15:16.924Z,30.321000
2024-03-05T08:20:17.025Z,30.325000
2024-03-05T08:25:17.178Z,30.322000
2024-03-05T08:30:17.164Z,30.323000
2024-03-05T08:35:17.139Z,30.320000
2024-03-05T08:40:17.017Z,30.321000
2024-03-05T08:45:17.168Z,30.322000
2024-03-05T08:50:17.003Z,30.322000
2024-03-05T08:55:17.077Z,30.322000
2024-03-05T09:00:28.111Z,30.319000
2024-03-05T09:05:17.127Z,30.318000
2024-03-05T09:10:17.055Z,30.318000
2024-03-05T09:15:17.423Z,30.318000
2024-03-05T09:20:17.365Z,30.317000
2024-03-05T09:25:17.172Z,30.311000
2024-03-05T09:30:17.367Z,30.306000
2024-03-05T09:35:17.222Z,30.305000
2024-03-05T09:40:17.187Z,30.305000
2024-03-05T09:45:17.958Z,30.305000
2024-03-05T09:50:23.369Z,30.306000
2024-03-05T09:55:17.106Z,30.303000
2024-03-05T10:00:17.187Z,30.299000
2024-03-05T10:05:17.980Z,30.298000
2024-03-05T10:10:17.257Z,30.300000
2024-03-05T10:15:17.291Z,30.300000
2024-03-05T10:20:17.160Z,30.297000
2024-03-05T10:25:17.214Z,30.303000
2024-03-05T10:30:17.380Z,30.299000
2024-03-05T10:35:17.210Z,30.299000
2024-03-05T10:40:17.270Z,30.299000
2024-03-05T10:45:17.270Z,30.297000
2024-03-05T10:50:17.268Z,30.298000
2024-03-05T10:55:17.221Z,30.299000
2024-03-05T11:00:17.392Z,30.303000
2024-03-05T11:05:15.284Z,30.304000
2024-03-05T11:10:15.623Z,30.301000
2024-03-05T11:15:17.433Z,30.302000
2024-03-05T11:20:15.308Z,30.298000
2024-03-05T11:25:15.265Z,30.298000
2024-03-05T11:30:15.440Z,30.295000
2024-03-05T11:35:15.254Z,30.291000
2024-03-05T11:40:15.299Z,30.293000
2024-03-05T11:45:15.339Z,30.300000
2024-03-05T11:50:15.301Z,30.300000
2024-03-05T11:55:15.409Z,30.302000
2024-03-05T12:00:15.328Z,30.305000
2024-03-05T12:05:15.377Z,30.302000
2024-03-05T12:10:15.322Z,30.304000
2024-03-05T12:15:15.360Z,30.301000
2024-03-05T12:20:15.369Z,30.301000
2024-03-05T12:25:15.642Z,30.302000
2024-03-05T12:30:15.558Z,30.304000
2024-03-05T12:35:15.415Z,30.305000
2024-03-05T12:40:15.696Z,30.305000
2024-03-05T12:45:15.455Z,30.306000
2024-03-05T12:50:15.485Z,30.307000
2024-03-05T12:55:15.461Z,30.307000
2024-03-05T13:00:15.427Z,30.301000
2024-03-05T13:05:15.667Z,30.299000
2024-03-05T13:10:15.425Z,30.298000
2024-03-05T13:15:15.445Z,30.298000
2024-03-05T13:20:15.575Z,30.295000
2024-03-05T13:25:15.458Z,30.294000
2024-03-05T13:30:16.120Z,30.295000
2024-03-05T13:35:15.577Z,30.294000
2024-03-05T13:40:15.478Z,30.291000
2024-03-05T13:45:15.832Z,30.288000
2024-03-05T13:50:16.030Z,30.287000
2024-03-05T13:55:15.504Z,30.287000
2024-03-05T14:00:15.517Z,30.291000
2024-03-05T14:05:15.618Z,30.290000
2024-03-05T14:10:15.567Z,30.290000
2024-03-05T14:15:15.625Z,30.285000
2024-03-05T14:20:15.575Z,30.280000
2024-03-05T14:25:15.622Z,30.278000
2024-03-05T14:30:15.622Z,30.277000
2024-03-05T14:35:15.652Z,30.279000
2024-03-05T14:40:15.817Z,30.280000
2024-03-05T14:45:15.966Z,30.279000
2024-03-05T14:50:15.661Z,30.277000
2024-03-05T14:55:15.778Z,30.274000
2024-03-05T15:00:15.631Z,30.273000
2024-03-05T15:05:15.896Z,30.270000
2024-03-05T15:10:15.653Z,30.270000
2024-03-05T15:15:15.919Z,30.270000
2024-03-05T15:20:17.840Z,30.269000
2024-03-05T15:25:15.700Z,30.267000
2024-03-05T15:30:15.688Z,30.258000
2024-03-05T15:35:15.763Z,30.257000
2024-03-05T15:40:15.937Z,30.253000
2024-03-05T15:45:15.870Z,30.248000
2024-03-05T15:50:15.753Z,30.245000
2024-03-05T15:55:15.799Z,30.243000
2024-03-05T16:00:15.914Z,30.239000
2024-03-05T16:05:24.655Z,30.237000
2024-03-05T16:10:15.842Z,30.238000
2024-03-05T16:15:15.791Z,30.238000
2024-03-05T16:20:15.942Z,30.230000
2024-03-05T16:25:15.792Z,30.227000
2024-03-05T16:30:15.778Z,30.228000
2024-03-05T16:35:15.899Z,30.226000
2024-03-05T16:40:15.879Z,30.226000
2024-03-05T16:45:15.830Z,30.227000
2024-03-05T16:50:15.886Z,30.223000
2024-03-05T16:55:15.901Z,30.222000
2024-03-05T17:00:15.895Z,30.216000
2024-03-05T17:05:16.073Z,30.214000
2024-03-05T17:10:16.030Z,30.204000
2024-03-05T17:15:15.821Z,30.203000
2024-03-05T17:20:15.905Z,30.198000
2024-03-05T17:25:16.051Z,30.197000
2024-03-05T17:30:17.928Z,30.191000
2024-03-05T17:35:15.977Z,30.187000
2024-03-05T17:40:15.889Z,30.183000
2024-03-05T17:45:15.936Z,30.179000
2024-03-05T17:50:15.941Z,30.183000
2024-03-05T17:55:16.162Z,30.188000
2024-03-05T18:00:16.054Z,30.183000
2024-03-05T18:05:16.317Z,30.174000
2024-03-05T18:10:16.135Z,30.173000
2024-03-05T18:15:16.115Z,30.179000
2024-03-05T18:20:16.041Z,30.170000
2024-03-05T18:25:15.953Z,30.162000
2024-03-05T18:30:15.943Z,30.158000
2024-03-05T18:35:16.271Z,30.156000
2024-03-05T18:40:16.027Z,30.152000
2024-03-05T18:45:16.039Z,30.144000
2024-03-05T18:50:16.058Z,30.142000
2024-03-05T18:55:16.285Z,30.137000
2024-03-05T19:00:16.043Z,30.135000
2024-03-05T19:05:16.172Z,30.134000
2024-03-05T19:10:16.092Z,30.135000
2024-03-05T19:15:16.331Z,30.136000
2024-03-05T19:20:16.444Z,30.134000
2024-03-05T19:25:16.063Z,30.132000
2024-03-05T19:30:16.060Z,30.129000
2024-03-05T19:35:16.352Z,30.131000
2024-03-05T19:40:16.247Z,30.129000
2024-03-05T19:45:16.122Z,30.128000
2024-03-05T19:50:16.153Z,30.124000
2024-03-05T19:55:16.550Z,30.120000
2024-03-05T20:00:16.147Z,30.119000
2024-03-05T20:05:16.224Z,30.118000
2024-03-05T20:10:16.174Z,30.116000
2024-03-05T20:15:16.196Z,30.112000
2024-03-05T20:20:17.285Z,30.110000
2024-03-05T20:25:19.121Z,30.113000
2024-03-05T20:30:16.207Z,30.109000
2024-03-05T20:35:16.338Z,30.113000
2024-03-05T20:40:16.197Z,30.112000
2024-03-05T20:45:16.256Z,30.106000
2024-03-05T20:50:16.537Z,30.100000
2024-03-05T20:55:16.295Z,30.102000
2024-03-05T21:00:16.344Z,30.096000
2024-03-05T21:05:16.387Z,30.094000
2024-03-05T21:10:16.261Z,30.094000
2024-03-05T21:15:16.263Z,30.092000
2024-03-05T21:20:16.355Z,30.093000
2024-03-05T21:25:16.293Z,30.093000
2024-03-05T21:30:16.535Z,30.091000
2024-03-05T21:35:16.383Z,30.080000
2024-03-05T21:40:16.364Z,30.077000
2024-03-05T21:45:16.672Z,30.076000
2024-03-05T21:50:16.400Z,30.077000
2024-03-05T21:55:16.801Z,30.078000
2024-03-05T22:00:16.331Z,30.074000
2024-03-05T22:05:16.508Z,30.068000
2024-03-05T22:10:16.384Z,30.065000
2024-03-05T22:15:16.582Z,30.066000
2024-03-05T22:20:16.473Z,30.064000
2024-03-05T22:25:16.373Z,30.064000
2024-03-05T22:30:16.625Z,30.056000
2024-03-05T22:35:16.483Z,30.054000
2024-03-05T22:40:16.654Z,30.047000
2024-03-05T22:45:16.527Z,30.043000
2024-03-05T22:50:16.645Z,30.043000
2024-03-05T22:55:16.728Z,30.038000
2024-03-05T23:00:16.439Z,30.038000
2024-03-05T23:05:16.554Z,30.042000
2024-03-05T23:10:16.486Z,30.041000
2024-03-05T23:15:17.130Z,30.043000
2024-03-05T23:20:16.521Z,30.042000
2024-03-05T23:25:18.737Z,30.040000
2024-03-05T23:30:16.753Z,30.041000
2024-03-05T23:35:16.776Z,30.039000
2024-03-05T23:40:16.760Z,30.041000
2024-03-05T23:45:16.685Z,30.041000
2024-03-05T23:50:16.806Z,30.040000
2024-03-05T23:55:16.514Z,30.036000
